createdAt,value
2022-11-22T00:00:54.855Z,22.00
2022-11-22T00:01:58.437Z,22.02
2022-11-22T00:03:02.164Z,22.02
2022-11-22T00:04:05.804Z,21.99
2022-11-22T00:05:09.334Z,22.00
2022-11-22T00:06:12.973Z,22.00
2022-11-22T00:07:16.714Z,21.99
2022-11-22T00:08:20.336Z,21.98
2022-11-22T00:09:23.918Z,21.98
2022-11-22T00:10:27.632Z,22.00
2022-11-22T00:11:31.196Z,22.00
2022-11-22T00:12:34.746Z,22.00
2022-11-22T00:13:38.411Z,22.02
2022-11-22T00:14:41.935Z,22.00
2022-11-22T00:15:45.482Z,21.99
2022-11-22T00:16:49.136Z,22.02
2022-11-22T00:17:52.660Z,22.03
2022-11-22T00:18:56.219Z,22.02
2022-11-22T00:19:59.900Z,22.03
2022-11-22T00:21:03.474Z,22.02
2022-11-22T00:22:07.004Z,22.03
2022-11-22T00:23:10.673Z,22.03
2022-11-22T00:24:14.248Z,22.00
2022-11-22T00:25:17.818Z,22.03
2022-11-22T00:26:21.495Z,22.03
2022-11-22T00:27:25.087Z,22.02
2022-11-22T00:28:28.618Z,22.00
2022-11-22T00:29:32.288Z,22.00
2022-11-22T00:30:35.875Z,21.98
2022-11-22T00:31:39.456Z,21.98
2022-11-22T00:32:43.126Z,21.98
2022-11-22T00:33:46.759Z,21.98
2022-11-22T00:34:50.335Z,21.98
2022-11-22T00:35:53.929Z,21.96
2022-11-22T00:36:57.606Z,21.96
2022-11-22T00:38:01.161Z,21.96
2022-11-22T00:39:04.736Z,21.94
2022-11-22T00:40:08.439Z,21.94
2022-11-22T00:41:12.044Z,21.96
2022-11-22T00:42:15.651Z,21.94
2022-11-22T00:43:19.255Z,21.96
2022-11-22T00:44:22.869Z,21.92
2022-11-22T00:45:26.383Z,21.94
2022-11-22T00:46:29.996Z,21.91
2022-11-22T00:47:33.653Z,21.92
2022-11-22T00:48:37.211Z,21.96
2022-11-22T00:49:40.770Z,21.94
2022-11-22T00:50:44.406Z,21.96
2022-11-22T00:51:47.994Z,21.94
2022-11-22T00:52:51.540Z,21.94
2022-11-22T00:53:55.191Z,21.94
2022-11-22T00:54:58.828Z,21.96
2022-11-22T00:56:02.345Z,21.94
2022-11-22T00:57:05.985Z,21.99
2022-11-22T00:58:09.700Z,21.92
2022-11-22T00:59:13.292Z,21.92
2022-11-22T01:00:16.873Z,21.92
2022-11-22T01:01:20.700Z,21.98
2022-11-22T01:02:24.344Z,21.92
2022-11-22T01:05:37.950Z,21.94
2022-11-22T01:05:41.070Z,21.94
2022-11-22T01:06:44.696Z,21.96
2022-11-22T01:07:48.410Z,21.91
2022-11-22T01:08:52.026Z,21.94
2022-11-22T01:09:55.608Z,21.91
2022-11-22T01:10:59.306Z,21.90
2022-11-22T01:12:02.855Z,21.90
2022-11-22T01:13:06.447Z,21.88
2022-11-22T01:14:10.122Z,21.86
2022-11-22T01:15:13.737Z,21.90
2022-11-22T01:16:17.305Z,21.91
2022-11-22T01:17:20.967Z,21.91
2022-11-22T01:18:24.589Z,21.91
2022-11-22T01:19:28.498Z,21.92
2022-11-22T01:20:32.257Z,21.91
2022-11-22T01:21:35.912Z,21.91
2022-11-22T01:22:39.501Z,21.91
2022-11-22T01:23:43.111Z,21.88
2022-11-22T01:24:46.769Z,21.92
2022-11-22T01:25:50.425Z,21.91
2022-11-22T01:26:53.984Z,21.90
2022-11-22T01:27:57.591Z,21.90
2022-11-22T01:29:01.266Z,21.92
2022-11-22T01:30:04.870Z,21.96
2022-11-22T01:31:08.372Z,21.96
2022-11-22T01:32:12.053Z,21.94
2022-11-22T01:33:15.713Z,21.96
2022-11-22T01:34:19.261Z,21.94
2022-11-22T01:35:22.902Z,21.92
2022-11-22T01:36:26.575Z,21.92
2022-11-22T01:37:30.123Z,21.94
2022-11-22T01:38:33.766Z,21.91
2022-11-22T01:39:37.463Z,21.94
2022-11-22T01:40:41.116Z,21.96
2022-11-22T01:41:44.655Z,21.94
2022-11-22T01:42:48.358Z,21.92
2022-11-22T01:43:51.948Z,21.92
2022-11-22T01:44:55.475Z,21.91
2022-11-22T01:45:59.204Z,21.90
2022-11-22T01:47:02.773Z,21.92
2022-11-22T01:48:06.353Z,21.90
2022-11-22T01:49:09.994Z,21.90
2022-11-22T01:50:13.602Z,21.91
2022-11-22T01:51:17.142Z,21.92
2022-11-22T01:52:20.725Z,21.92
2022-11-22T01:53:24.391Z,21.90
2022-11-22T01:54:27.927Z,21.91
2022-11-22T01:55:31.528Z,21.88
2022-11-22T01:56:35.211Z,21.91
2022-11-22T01:57:38.761Z,21.92
2022-11-22T01:58:42.395Z,21.90
2022-11-22T01:59:46.099Z,21.91
2022-11-22T02:00:49.768Z,21.92
2022-11-22T02:01:53.425Z,21.92
2022-11-22T02:02:57.101Z,21.94
2022-11-22T02:04:00.734Z,21.91
2022-11-22T02:05:04.276Z,21.92
2022-11-22T02:06:07.936Z,21.88
2022-11-22T02:07:11.652Z,21.86
2022-11-22T02:08:15.228Z,21.88
2022-11-22T02:09:18.869Z,21.88
2022-11-22T02:10:22.518Z,21.91
2022-11-22T02:11:30.986Z,21.90
2022-11-22T02:12:29.760Z,21.86
2022-11-22T02:13:33.480Z,21.86
2022-11-22T02:14:37.082Z,21.88
2022-11-22T02:15:40.666Z,21.90
2022-11-22T02:16:44.380Z,21.86
2022-11-22T02:17:47.957Z,21.86
2022-11-22T02:18:51.525Z,21.88
2022-11-22T02:19:55.234Z,21.90
2022-11-22T02:20:58.808Z,21.91
2022-11-22T02:22:02.367Z,21.91
2022-11-22T02:23:06.035Z,21.90
2022-11-22T02:24:09.542Z,21.88
2022-11-22T02:25:13.150Z,21.90
2022-11-22T02:26:16.884Z,21.84
2022-11-22T02:27:20.502Z,21.86
2022-11-22T02:28:24.045Z,21.88
2022-11-22T02:29:28.094Z,21.86
2022-11-22T02:30:31.971Z,21.84
2022-11-22T02:31:35.545Z,21.84
2022-11-22T02:32:39.119Z,21.84
2022-11-22T02:33:42.811Z,21.82
2022-11-22T02:34:46.308Z,21.83
2022-11-22T02:35:49.884Z,21.83
2022-11-22T02:36:53.559Z,21.82
2022-11-22T02:37:57.090Z,21.82
2022-11-22T02:39:00.711Z,21.82
2022-11-22T02:40:04.342Z,21.80
2022-11-22T02:41:07.904Z,21.80
2022-11-22T02:42:11.513Z,21.83
2022-11-22T02:43:15.170Z,21.83
2022-11-22T02:44:18.743Z,21.83
2022-11-22T02:45:22.304Z,21.82
2022-11-22T02:46:25.980Z,21.80
2022-11-22T02:47:29.506Z,21.82
2022-11-22T02:48:33.125Z,21.80
2022-11-22T02:49:36.789Z,21.83
2022-11-22T02:50:40.296Z,21.84
2022-11-22T02:51:43.981Z,21.80
2022-11-22T02:52:47.586Z,21.80
2022-11-22T02:53:51.104Z,21.82
2022-11-22T02:54:54.795Z,21.80
2022-11-22T02:55:58.396Z,21.83
2022-11-22T02:57:01.964Z,21.82
2022-11-22T02:58:05.635Z,21.82
2022-11-22T02:59:09.226Z,21.80
2022-11-22T03:00:12.764Z,21.82
2022-11-22T03:01:16.509Z,21.79
2022-11-22T03:02:20.262Z,21.80
2022-11-22T03:03:23.800Z,21.80
2022-11-22T03:04:27.376Z,21.84
2022-11-22T03:05:31.053Z,21.80
2022-11-22T03:06:34.585Z,21.80
2022-11-22T03:07:38.260Z,21.80
2022-11-22T03:08:41.923Z,21.77
2022-11-22T03:09:45.461Z,21.79
2022-11-22T03:10:49.020Z,21.77
2022-11-22T03:11:52.645Z,21.75
2022-11-22T03:12:56.207Z,21.75
2022-11-22T03:13:59.778Z,21.75
2022-11-22T03:15:03.441Z,21.74
2022-11-22T03:16:06.960Z,21.75
2022-11-22T03:17:10.595Z,21.75
2022-11-22T03:18:14.254Z,21.77
2022-11-22T03:19:17.790Z,21.77
2022-11-22T03:20:21.366Z,21.75
2022-11-22T03:21:24.995Z,21.75
2022-11-22T03:22:28.518Z,21.77
2022-11-22T03:23:32.143Z,21.79
2022-11-22T03:24:35.741Z,21.79
2022-11-22T03:25:39.279Z,21.77
2022-11-22T03:26:42.904Z,21.75
2022-11-22T03:27:46.515Z,21.79
2022-11-22T03:28:50.035Z,21.79
2022-11-22T03:29:53.668Z,21.80
2022-11-22T03:30:57.284Z,21.77
2022-11-22T03:32:00.832Z,21.77
2022-11-22T03:33:04.482Z,21.79
2022-11-22T03:34:08.215Z,21.79
2022-11-22T03:35:11.791Z,21.82
2022-11-22T03:36:15.362Z,21.80
2022-11-22T03:37:19.031Z,21.79
2022-11-22T03:38:22.589Z,21.79
2022-11-22T03:39:26.222Z,21.77
2022-11-22T03:40:29.910Z,21.80
2022-11-22T03:41:33.416Z,21.80
2022-11-22T03:42:37.058Z,21.77
2022-11-22T03:43:40.680Z,21.80
2022-11-22T03:44:44.232Z,21.82
2022-11-22T03:45:47.812Z,21.80
2022-11-22T03:46:51.452Z,21.77
2022-11-22T03:47:54.988Z,21.77
2022-11-22T03:48:58.620Z,21.77
2022-11-22T03:50:02.282Z,21.75
2022-11-22T03:51:05.801Z,21.75
2022-11-22T03:52:09.377Z,21.79
2022-11-22T03:53:13.048Z,21.77
2022-11-22T03:54:16.590Z,21.79
2022-11-22T03:55:20.220Z,21.77
2022-11-22T03:56:23.892Z,21.75
2022-11-22T03:57:27.437Z,21.75
2022-11-22T03:58:31.017Z,21.77
2022-11-22T03:59:34.729Z,21.75
2022-11-22T04:00:38.335Z,21.77
2022-11-22T04:01:41.971Z,21.75
2022-11-22T04:02:45.649Z,21.75
2022-11-22T04:03:49.244Z,21.77
2022-11-22T04:04:52.835Z,21.77
2022-11-22T04:05:56.487Z,21.74
2022-11-22T04:07:00.154Z,21.77
2022-11-22T04:08:03.653Z,21.75
2022-11-22T04:09:07.402Z,21.77
2022-11-22T04:10:11.194Z,21.79
2022-11-22T04:11:14.849Z,21.75
2022-11-22T04:12:18.456Z,21.77
2022-11-22T04:13:22.122Z,21.77
2022-11-22T04:14:25.691Z,21.79
2022-11-22T04:15:29.264Z,21.77
2022-11-22T04:16:32.933Z,21.79
2022-11-22T04:17:36.578Z,21.75
2022-11-22T04:18:40.224Z,21.77
2022-11-22T04:19:43.848Z,21.77
2022-11-22T04:20:47.476Z,21.75
2022-11-22T04:21:51.018Z,21.77
2022-11-22T04:22:54.602Z,21.75
2022-11-22T04:23:58.296Z,21.74
2022-11-22T04:25:01.831Z,21.74
2022-11-22T04:26:05.440Z,21.74
2022-11-22T04:27:09.084Z,21.75
2022-11-22T04:28:12.648Z,21.77
2022-11-22T04:29:16.231Z,21.79
2022-11-22T04:30:20.920Z,21.77
2022-11-22T04:31:24.701Z,21.75
2022-11-22T04:32:28.392Z,21.77
2022-11-22T04:33:31.898Z,21.77
2022-11-22T04:34:35.532Z,21.77
2022-11-22T04:35:39.184Z,21.74
2022-11-22T04:36:42.723Z,21.75
2022-11-22T04:37:46.344Z,21.74
2022-11-22T04:38:49.941Z,21.77
2022-11-22T04:39:53.583Z,21.75
2022-11-22T04:40:57.276Z,21.75
2022-11-22T04:42:00.941Z,21.74
2022-11-22T04:43:04.520Z,21.75
2022-11-22T04:44:08.101Z,21.74
2022-11-22T04:45:11.769Z,21.72
2022-11-22T04:46:15.345Z,21.75
2022-11-22T04:47:18.967Z,21.77
2022-11-22T04:48:22.666Z,21.75
2022-11-22T04:49:26.280Z,21.75
2022-11-22T04:50:29.824Z,21.77
2022-11-22T04:51:33.503Z,21.80
2022-11-22T04:52:37.088Z,21.79
2022-11-22T04:53:40.710Z,21.79
2022-11-22T04:54:44.360Z,21.77
2022-11-22T04:55:47.930Z,21.77
2022-11-22T04:56:51.504Z,21.79
2022-11-22T04:57:59.634Z,21.77
2022-11-22T04:58:58.957Z,21.75
2022-11-22T05:00:02.472Z,21.77
2022-11-22T05:01:06.185Z,21.75
2022-11-22T05:02:09.897Z,21.77
2022-11-22T05:03:13.465Z,21.77
2022-11-22T05:04:17.079Z,21.75
2022-11-22T05:05:20.796Z,21.74
2022-11-22T05:06:24.390Z,21.74
2022-11-22T05:07:27.965Z,21.74
2022-11-22T05:08:31.673Z,21.74
2022-11-22T05:09:35.316Z,21.72
2022-11-22T05:10:38.849Z,21.72
2022-11-22T05:11:42.530Z,21.72
2022-11-22T05:12:46.203Z,21.72
2022-11-22T05:13:49.711Z,21.71
2022-11-22T05:14:53.417Z,21.71
2022-11-22T05:15:57.067Z,21.71
2022-11-22T05:17:00.621Z,21.71
2022-11-22T05:18:04.255Z,21.72
2022-11-22T05:19:07.860Z,21.69
2022-11-22T05:20:11.403Z,21.71
2022-11-22T05:21:15.052Z,21.69
2022-11-22T05:22:18.642Z,21.72
2022-11-22T05:23:22.182Z,21.69
2022-11-22T05:24:25.853Z,21.69
2022-11-22T05:25:29.474Z,21.68
2022-11-22T05:26:32.995Z,21.69
2022-11-22T05:27:36.596Z,21.71
2022-11-22T05:28:40.249Z,21.71
2022-11-22T05:29:43.766Z,21.71
2022-11-22T05:30:47.387Z,21.71
2022-11-22T05:31:51.547Z,21.72
2022-11-22T05:32:55.323Z,21.72
2022-11-22T05:33:58.890Z,21.71
2022-11-22T05:35:02.503Z,21.75
2022-11-22T05:36:06.192Z,21.75
2022-11-22T05:37:09.722Z,21.75
2022-11-22T05:38:13.326Z,21.75
2022-11-22T05:39:17.039Z,21.74
2022-11-22T05:40:20.617Z,21.72
2022-11-22T05:41:24.215Z,21.75
2022-11-22T05:42:27.877Z,21.75
2022-11-22T05:43:31.410Z,21.77
2022-11-22T05:44:35.006Z,21.79
2022-11-22T05:45:38.669Z,21.79
2022-11-22T05:46:42.285Z,21.79
2022-11-22T05:47:45.863Z,21.80
2022-11-22T05:48:49.506Z,21.79
2022-11-22T05:49:53.211Z,21.77
2022-11-22T05:50:56.717Z,21.80
2022-11-22T05:52:00.496Z,21.79
2022-11-22T05:53:04.176Z,21.79
2022-11-22T05:54:07.757Z,21.80
2022-11-22T05:55:11.327Z,21.82
2022-11-22T05:56:14.970Z,21.83
2022-11-22T05:57:18.666Z,21.82
2022-11-22T05:58:22.198Z,21.82
2022-11-22T05:59:25.836Z,21.83
2022-11-22T06:00:29.510Z,21.82
2022-11-22T06:01:33.071Z,21.83
2022-11-22T06:02:36.758Z,21.82
2022-11-22T06:03:40.512Z,21.83
2022-11-22T06:04:44.136Z,21.84
2022-11-22T06:05:47.707Z,21.86
2022-11-22T06:06:51.360Z,21.84
2022-11-22T06:07:55.041Z,21.96
2022-11-22T06:08:58.673Z,21.96
2022-11-22T06:10:02.253Z,21.96
2022-11-22T06:11:05.971Z,21.94
2022-11-22T06:12:09.575Z,21.90
2022-11-22T06:13:13.139Z,21.92
2022-11-22T06:14:16.749Z,21.91
2022-11-22T06:15:20.420Z,21.96
2022-11-22T06:16:23.987Z,21.96
2022-11-22T06:17:27.590Z,22.02
2022-11-22T06:18:31.255Z,22.06
2022-11-22T06:19:34.918Z,22.05
2022-11-22T06:20:38.479Z,22.03
2022-11-22T06:21:42.092Z,22.05
2022-11-22T06:22:45.739Z,22.05
2022-11-22T06:23:49.601Z,22.03
2022-11-22T06:24:53.213Z,22.07
2022-11-22T06:25:56.907Z,21.94
2022-11-22T06:27:00.458Z,21.91
2022-11-22T06:28:04.029Z,21.91
2022-11-22T06:29:07.857Z,21.91
2022-11-22T06:30:11.480Z,21.83
2022-11-22T06:31:15.040Z,21.84
2022-11-22T06:32:18.735Z,21.77
2022-11-22T06:33:22.389Z,21.80
2022-11-22T06:34:25.985Z,21.79
2022-11-22T06:35:29.601Z,21.75
2022-11-22T06:36:33.316Z,21.77
2022-11-22T06:37:36.887Z,21.69
2022-11-22T06:38:40.430Z,21.69
2022-11-22T06:39:44.134Z,21.62
2022-11-22T06:40:47.734Z,21.69
2022-11-22T06:41:51.241Z,21.69
2022-11-22T06:42:54.943Z,21.79
2022-11-22T06:43:58.533Z,21.72
2022-11-22T06:45:02.135Z,21.71
2022-11-22T06:46:05.738Z,21.79
2022-11-22T06:47:09.389Z,21.67
2022-11-22T06:48:13.137Z,21.67
2022-11-22T06:49:16.759Z,21.68
2022-11-22T06:50:22.037Z,21.72
2022-11-22T06:51:23.249Z,21.74
2022-11-22T06:52:26.931Z,21.72
2022-11-22T06:53:46.746Z,21.69
2022-11-22T06:54:33.122Z,21.71
2022-11-22T06:55:50.173Z,21.71
2022-11-22T06:56:39.436Z,21.77
2022-11-22T06:57:43.025Z,21.77
2022-11-22T06:58:46.643Z,21.74
2022-11-22T06:59:50.302Z,21.71
2022-11-22T07:00:53.890Z,21.72
2022-11-22T07:02:02.927Z,21.72
2022-11-22T07:03:02.005Z,21.77
2022-11-22T07:04:05.834Z,21.72
2022-11-22T07:05:25.064Z,21.67
2022-11-22T07:06:12.082Z,21.69
2022-11-22T07:07:15.715Z,21.72
2022-11-22T07:08:19.334Z,21.74
2022-11-22T07:09:23.012Z,21.75
2022-11-22T07:10:26.597Z,21.84
2022-11-22T07:11:30.206Z,21.88
2022-11-22T07:12:33.849Z,21.91
2022-11-22T07:13:37.541Z,22.02
2022-11-22T07:14:41.081Z,22.02
2022-11-22T07:15:44.685Z,22.05
2022-11-22T07:16:48.420Z,22.09
2022-11-22T07:17:52.056Z,22.10
2022-11-22T07:18:55.653Z,22.15
2022-11-22T07:19:59.327Z,22.20
2022-11-22T07:21:06.784Z,22.25
2022-11-22T07:22:05.573Z,22.27
2022-11-22T07:23:09.117Z,22.28
2022-11-22T07:24:12.710Z,22.28
2022-11-22T07:25:16.465Z,22.35
2022-11-22T07:26:20.046Z,22.35
2022-11-22T07:27:23.643Z,22.36
2022-11-22T07:28:27.292Z,22.37
2022-11-22T07:29:31.244Z,22.39
2022-11-22T07:30:37.604Z,22.42
2022-11-22T07:31:38.367Z,22.42
2022-11-22T07:32:42.060Z,22.46
2022-11-22T07:33:45.666Z,22.47
2022-11-22T07:34:49.269Z,22.47
2022-11-22T07:35:53.022Z,22.49
2022-11-22T07:36:59.846Z,22.49
2022-11-22T07:38:00.007Z,22.51
2022-11-22T07:39:03.688Z,22.51
2022-11-22T07:40:07.354Z,22.52
2022-11-22T07:41:10.870Z,22.49
2022-11-22T07:42:14.544Z,22.51
2022-11-22T07:43:18.184Z,22.51
2022-11-22T07:44:21.780Z,22.52
2022-11-22T07:45:25.398Z,22.52
2022-11-22T07:46:29.064Z,22.52
2022-11-22T07:47:32.631Z,22.58
2022-11-22T07:48:36.251Z,22.58
2022-11-22T07:49:39.914Z,22.57
2022-11-22T07:50:43.518Z,22.58
2022-11-22T07:51:47.079Z,22.60
2022-11-22T07:52:50.728Z,22.60
2022-11-22T07:53:54.405Z,22.58
2022-11-22T07:54:57.940Z,22.60
2022-11-22T07:56:01.618Z,22.58
2022-11-22T07:57:05.281Z,22.58
2022-11-22T07:58:08.909Z,22.65
2022-11-22T07:59:12.523Z,22.64
2022-11-22T08:00:16.219Z,22.67
2022-11-22T08:01:19.980Z,22.67
2022-11-22T08:02:23.522Z,22.68
2022-11-22T08:03:29.329Z,22.68
2022-11-22T08:04:30.655Z,22.67
2022-11-22T08:05:34.156Z,22.67
2022-11-22T08:06:37.800Z,22.70
2022-11-22T08:07:41.666Z,22.72
2022-11-22T08:08:45.329Z,22.72
2022-11-22T08:09:48.960Z,22.73
2022-11-22T08:10:52.646Z,22.73
2022-11-22T08:11:56.235Z,22.75
2022-11-22T08:12:59.767Z,22.72
2022-11-22T08:14:03.474Z,22.75
2022-11-22T08:15:07.147Z,22.72
2022-11-22T08:16:10.686Z,22.73
2022-11-22T08:17:14.261Z,22.73
2022-11-22T08:18:17.913Z,22.75
2022-11-22T08:19:21.460Z,22.77
2022-11-22T08:20:25.111Z,22.77
2022-11-22T08:21:28.829Z,22.79
2022-11-22T08:22:32.437Z,22.75
2022-11-22T08:23:36.099Z,22.76
2022-11-22T08:24:39.659Z,22.82
2022-11-22T08:25:43.389Z,22.90
2022-11-22T08:26:46.992Z,22.92
2022-11-22T08:27:50.544Z,22.94
2022-11-22T08:28:54.199Z,22.91
2022-11-22T08:29:57.840Z,22.86
2022-11-22T08:31:01.384Z,22.85
2022-11-22T08:32:05.030Z,22.83
2022-11-22T08:33:08.724Z,22.70
2022-11-22T08:34:12.299Z,22.67
2022-11-22T08:35:15.905Z,22.68
2022-11-22T08:36:19.629Z,22.70
2022-11-22T08:37:23.220Z,22.72
2022-11-22T08:38:26.759Z,22.72
2022-11-22T08:39:30.828Z,22.70
2022-11-22T08:40:39.628Z,22.61
2022-11-22T08:41:37.113Z,22.62
2022-11-22T08:42:40.772Z,22.60
2022-11-22T08:43:44.332Z,22.60
2022-11-22T08:44:47.973Z,22.60
2022-11-22T08:45:51.705Z,22.52
2022-11-22T08:46:55.311Z,22.51
2022-11-22T08:47:58.835Z,22.49
2022-11-22T08:49:02.493Z,22.45
2022-11-22T08:50:06.124Z,22.47
2022-11-22T08:51:09.654Z,22.47
2022-11-22T08:52:13.319Z,22.47
2022-11-22T08:53:16.992Z,22.51
2022-11-22T08:54:20.553Z,22.51
2022-11-22T08:55:24.157Z,22.51
2022-11-22T08:56:27.857Z,22.51
2022-11-22T08:57:31.454Z,22.51
2022-11-22T08:58:34.994Z,22.49
2022-11-22T08:59:38.719Z,22.49
2022-11-22T09:00:42.461Z,22.51
2022-11-22T09:01:46.138Z,22.49
2022-11-22T09:02:49.838Z,22.47
2022-11-22T09:03:53.474Z,22.47
2022-11-22T09:04:57.131Z,22.47
2022-11-22T09:08:22.768Z,22.54
2022-11-22T09:10:14.712Z,22.57
2022-11-22T09:11:18.373Z,22.51
2022-11-22T09:12:21.922Z,22.54
2022-11-22T09:13:25.487Z,22.54
2022-11-22T09:14:29.185Z,22.55
2022-11-22T09:15:32.807Z,22.55
2022-11-22T09:16:36.327Z,22.55
2022-11-22T09:17:39.895Z,22.54
2022-11-22T09:18:43.576Z,22.55
2022-11-22T09:19:47.175Z,22.52
2022-11-22T09:20:50.720Z,22.52
2022-11-22T09:21:54.395Z,22.52
2022-11-22T09:22:58.043Z,22.52
2022-11-22T09:24:01.646Z,22.54
2022-11-22T09:25:05.296Z,22.55
2022-11-22T09:26:08.994Z,22.52
2022-11-22T09:27:12.681Z,22.55
2022-11-22T09:28:16.245Z,22.54
2022-11-22T09:29:19.901Z,22.55
2022-11-22T09:30:23.539Z,22.49
2022-11-22T09:31:27.076Z,22.51
2022-11-22T09:32:33.625Z,22.49
2022-11-22T09:33:35.037Z,22.47
2022-11-22T09:34:38.772Z,22.46
2022-11-22T09:35:42.409Z,22.46
2022-11-22T09:36:45.907Z,22.46
2022-11-22T09:37:49.555Z,22.49
2022-11-22T09:38:53.179Z,22.51
2022-11-22T09:39:56.745Z,22.51
2022-11-22T09:41:00.384Z,22.47
2022-11-22T09:42:04.048Z,22.43
2022-11-22T09:43:07.612Z,22.43
2022-11-22T09:44:11.259Z,22.42
2022-11-22T09:45:14.982Z,22.39
2022-11-22T09:46:18.575Z,22.37
2022-11-22T09:47:22.082Z,22.39
2022-11-22T09:48:25.752Z,22.37
2022-11-22T09:49:29.846Z,22.37
2022-11-22T09:50:33.605Z,22.36
2022-11-22T09:51:37.155Z,22.37
2022-11-22T09:52:40.775Z,22.35
2022-11-22T09:53:44.415Z,22.36
2022-11-22T09:54:47.953Z,22.35
2022-11-22T09:55:51.578Z,22.36
2022-11-22T09:56:55.209Z,22.33
2022-11-22T09:57:58.729Z,22.33
2022-11-22T09:59:02.488Z,22.33
2022-11-22T10:00:06.198Z,22.33
2022-11-22T10:01:09.884Z,22.33
2022-11-22T10:02:18.781Z,22.33
2022-11-22T10:03:17.878Z,22.30
2022-11-22T10:04:21.507Z,22.30
2022-11-22T10:05:25.280Z,22.30
2022-11-22T10:06:28.907Z,22.33
2022-11-22T10:07:32.515Z,22.31
2022-11-22T10:08:36.226Z,22.30
2022-11-22T10:09:39.886Z,22.30
2022-11-22T10:10:43.444Z,22.33
2022-11-22T10:11:47.046Z,22.30
2022-11-22T10:12:50.734Z,22.30
2022-11-22T10:13:54.395Z,22.30
2022-11-22T10:14:58.001Z,22.30
2022-11-22T10:16:01.618Z,22.30
2022-11-22T10:17:05.318Z,22.27
2022-11-22T10:18:08.862Z,22.27
2022-11-22T10:19:12.467Z,22.30
2022-11-22T10:20:16.114Z,22.25
2022-11-22T10:21:19.739Z,22.33
2022-11-22T10:22:23.264Z,22.31
2022-11-22T10:23:26.915Z,22.30
2022-11-22T10:24:30.558Z,22.27
2022-11-22T10:25:34.063Z,22.25
2022-11-22T10:26:37.689Z,22.25
2022-11-22T10:27:41.383Z,22.24
2022-11-22T10:28:44.911Z,22.24
2022-11-22T10:29:48.521Z,22.22
2022-11-22T10:30:52.322Z,22.22
2022-11-22T10:31:55.987Z,22.25
2022-11-22T10:32:59.551Z,22.25
2022-11-22T10:34:03.197Z,22.25
2022-11-22T10:35:06.871Z,22.20
2022-11-22T10:36:10.416Z,22.20
2022-11-22T10:37:14.094Z,22.20
2022-11-22T10:38:17.785Z,22.20
2022-11-22T10:39:21.672Z,22.18
2022-11-22T10:40:25.200Z,22.20
2022-11-22T10:41:28.855Z,22.20
2022-11-22T10:42:32.490Z,22.22
2022-11-22T10:43:36.048Z,22.24
2022-11-22T10:44:39.673Z,22.20
2022-11-22T10:45:43.381Z,22.25
2022-11-22T10:46:46.955Z,22.27
2022-11-22T10:47:50.571Z,22.28
2022-11-22T10:48:54.273Z,22.30
2022-11-22T10:49:57.901Z,22.30
2022-11-22T10:51:01.463Z,22.31
2022-11-22T10:52:05.168Z,22.27
2022-11-22T10:53:08.819Z,22.24
2022-11-22T10:54:12.387Z,22.25
2022-11-22T10:55:16.006Z,22.25
2022-11-22T10:56:19.659Z,22.33
2022-11-22T10:57:23.183Z,22.35
2022-11-22T10:58:26.840Z,22.36
2022-11-22T10:59:31.036Z,22.45
2022-11-22T11:00:34.975Z,22.47
2022-11-22T11:01:38.655Z,22.49
2022-11-22T11:02:42.279Z,22.49
2022-11-22T11:03:45.909Z,22.45
2022-11-22T11:04:49.544Z,22.39
2022-11-22T11:07:11.732Z,22.40
2022-11-22T11:08:22.219Z,22.49
2022-11-22T11:10:12.813Z,22.58
2022-11-22T11:11:13.490Z,22.58
2022-11-22T11:12:17.140Z,22.72
2022-11-22T11:13:20.655Z,22.68
2022-11-22T11:14:26.800Z,22.68
2022-11-22T11:15:28.038Z,22.73
2022-11-22T11:16:31.653Z,22.82
2022-11-22T11:17:35.652Z,22.80
2022-11-22T11:18:39.337Z,22.86
2022-11-22T11:19:43.090Z,22.95
2022-11-22T11:20:46.718Z,22.98
2022-11-22T11:21:50.328Z,22.98
2022-11-22T11:23:57.384Z,23.07
2022-11-22T11:25:00.926Z,23.07
2022-11-22T11:26:04.548Z,23.10
2022-11-22T11:27:08.215Z,23.10
2022-11-22T11:28:11.766Z,23.12
2022-11-22T11:29:15.486Z,23.13
2022-11-22T11:30:19.227Z,23.13
2022-11-22T11:31:22.852Z,23.12
2022-11-22T11:32:26.432Z,23.15
2022-11-22T11:33:30.081Z,23.15
2022-11-22T11:34:33.817Z,23.20
2022-11-22T11:35:37.410Z,23.20
2022-11-22T11:36:41.076Z,23.23
2022-11-22T11:37:44.717Z,23.27
2022-11-22T11:38:48.301Z,23.25
2022-11-22T11:39:51.909Z,23.27
2022-11-22T11:40:55.547Z,23.27
2022-11-22T11:41:59.335Z,23.32
2022-11-22T11:43:03.050Z,23.35
2022-11-22T11:44:06.825Z,23.35
2022-11-22T11:45:10.474Z,23.38
2022-11-22T11:46:14.158Z,23.36
2022-11-22T11:47:17.910Z,23.36
2022-11-22T11:48:21.523Z,23.40
2022-11-22T11:49:25.189Z,23.39
2022-11-22T11:50:28.905Z,23.39
2022-11-22T11:51:32.543Z,23.39
2022-11-22T11:52:36.069Z,23.40
2022-11-22T11:53:39.763Z,23.40
2022-11-22T11:54:43.487Z,23.42
2022-11-22T11:55:47.033Z,23.42
2022-11-22T11:56:50.630Z,23.43
2022-11-22T11:57:54.296Z,23.42
2022-11-22T11:58:57.932Z,23.42
2022-11-22T12:00:01.599Z,23.43
2022-11-22T12:01:05.239Z,23.43
2022-11-22T12:02:08.964Z,23.47
2022-11-22T12:03:12.779Z,23.48
2022-11-22T12:04:16.304Z,23.48
2022-11-22T12:05:20.030Z,23.51
2022-11-22T12:06:23.667Z,23.51
2022-11-22T12:07:27.348Z,23.53
2022-11-22T12:08:31.092Z,23.51
2022-11-22T12:09:34.748Z,23.54
2022-11-22T12:10:38.347Z,23.55
2022-11-22T12:11:41.919Z,23.55
2022-11-22T12:12:45.574Z,23.55
2022-11-22T12:14:18.381Z,23.57
2022-11-22T12:15:10.352Z,23.58
2022-11-22T12:15:56.961Z,23.58
2022-11-22T12:17:00.677Z,23.58
2022-11-22T12:18:04.398Z,23.58
2022-11-22T12:19:08.045Z,23.57
2022-11-22T12:20:11.590Z,23.58
2022-11-22T12:21:15.235Z,23.54
2022-11-22T12:22:42.577Z,23.54
2022-11-22T12:23:22.000Z,23.55
2022-11-22T12:24:48.444Z,23.46
2022-11-22T12:25:34.518Z,23.47
2022-11-22T12:26:33.492Z,23.27
2022-11-22T12:27:37.126Z,23.23
2022-11-22T12:28:40.800Z,23.15
2022-11-22T12:29:44.432Z,23.07
2022-11-22T12:30:48.013Z,23.09
2022-11-22T12:31:51.627Z,23.07
2022-11-22T12:32:55.335Z,23.00
2022-11-22T12:33:58.889Z,22.92
2022-11-22T12:35:02.465Z,22.94
2022-11-22T12:36:06.126Z,22.88
2022-11-22T12:37:09.765Z,22.80
2022-11-22T12:38:13.404Z,22.79
2022-11-22T12:39:17.006Z,22.77
2022-11-22T12:40:20.684Z,22.75
2022-11-22T12:41:24.289Z,22.73
2022-11-22T12:42:28.049Z,22.73
2022-11-22T12:43:31.682Z,22.75
2022-11-22T12:44:35.339Z,22.76
2022-11-22T12:45:38.932Z,22.75
2022-11-22T12:46:42.643Z,22.82
2022-11-22T12:47:46.397Z,22.80
2022-11-22T12:48:49.966Z,22.76
2022-11-22T12:49:53.554Z,22.76
2022-11-22T12:50:57.253Z,22.75
2022-11-22T12:52:00.861Z,22.75
2022-11-22T12:53:04.388Z,22.75
2022-11-22T12:54:08.032Z,22.75
2022-11-22T12:55:11.646Z,22.77
2022-11-22T12:56:15.235Z,22.75
2022-11-22T12:57:18.896Z,22.73
2022-11-22T12:58:22.520Z,22.75
2022-11-22T12:59:26.084Z,22.76
2022-11-22T13:00:29.688Z,22.76
2022-11-22T13:01:33.489Z,22.73
2022-11-22T13:02:37.139Z,22.76
2022-11-22T13:03:40.728Z,22.75
2022-11-22T13:04:44.426Z,22.72
2022-11-22T13:05:48.088Z,22.73
2022-11-22T13:06:51.695Z,22.73
2022-11-22T13:07:55.436Z,22.70
2022-11-22T13:09:03.654Z,22.73
2022-11-22T13:10:03.003Z,22.79
2022-11-22T13:11:06.553Z,22.77
2022-11-22T13:12:10.248Z,22.77
2022-11-22T13:13:13.868Z,22.86
2022-11-22T13:14:20.985Z,22.86
2022-11-22T13:15:20.048Z,22.79
2022-11-22T13:16:23.643Z,22.80
2022-11-22T13:17:27.298Z,22.77
2022-11-22T13:18:30.924Z,22.85
2022-11-22T13:19:34.444Z,22.85
2022-11-22T13:20:42.768Z,22.91
2022-11-22T13:21:41.792Z,22.95
2022-11-22T13:22:45.397Z,22.97
2022-11-22T13:23:49.020Z,22.98
2022-11-22T13:24:52.714Z,23.09
2022-11-22T13:25:56.361Z,23.05
2022-11-22T13:26:59.877Z,23.04
2022-11-22T13:28:03.517Z,23.07
2022-11-22T13:29:07.197Z,23.15
2022-11-22T13:30:10.786Z,23.16
2022-11-22T13:31:14.452Z,23.15
2022-11-22T13:32:18.158Z,23.15
2022-11-22T13:33:21.786Z,23.16
2022-11-22T13:34:25.299Z,23.15
2022-11-22T13:35:28.977Z,23.15
2022-11-22T13:36:32.717Z,23.12
2022-11-22T13:37:36.324Z,23.00
2022-11-22T13:38:39.911Z,23.00
2022-11-22T13:39:43.584Z,23.04
2022-11-22T13:40:47.226Z,23.04
2022-11-22T13:41:50.789Z,23.07
2022-11-22T13:42:54.366Z,23.02
2022-11-22T13:43:58.169Z,23.07
2022-11-22T13:45:01.764Z,23.07
2022-11-22T13:46:05.271Z,23.07
2022-11-22T13:47:08.901Z,23.10